Time;durP1;ratioP1;P1;durP2;ratioP2;P2;SDS_P1;SDS_P2;PMS_P1;PMS_P2;Temp;Humidity;BMP_temperature;BMP_pressure;BME280_temperature;BME280_humidity;BME280_pressure;Samples;Min_cycle;Max_cycle;Signal;HPM_P1;HPM_P2
2022/08/24 00:04:55;;;;;;;2.13;1.80;;;;;;;19.63;41.74;96067.75;10315200;28;97970;-57
2022/08/24 00:09:59;;;;;;;3.42;1.65;;;;;;;19.57;42.37;96063.28;10321635;28;97984;-58
2022/08/24 00:15:04;;;;;;;3.80;1.70;;;;;;;19.39;43.33;96065.78;10321073;28;96967;-58
2022/08/24 00:20:10;;;;;;;2.17;1.80;;;;;;;19.14;44.17;96071.75;10327422;28;96863;-60
2022/08/24 00:25:16;;;;;;;3.50;1.70;;;;;;;18.87;44.08;96066.44;10329021;28;97267;-60
2022/08/24 00:30:20;;;;;;;4.05;1.60;;;;;;;18.57;44.18;96073.94;10322180;28;96926;-59
2022/08/24 00:35:23;;;;;;;2.35;1.58;;;;;;;18.48;44.33;96067.19;10331088;28;96778;-59
2022/08/24 00:40:43;;;;;;;2.67;1.42;;;;;;;18.35;44.06;96062.72;10329864;28;96931;-60
2022/08/24 00:45:51;;;;;;;4.75;1.60;;;;;;;18.30;44.99;96065.16;10311550;28;96994;-60
2022/08/24 00:50:58;;;;;;;2.78;1.50;;;;;;;18.27;44.96;96068.19;10326255;28;96869;-60
2022/08/24 00:56:06;;;;;;;3.05;1.52;;;;;;;18.05;44.53;96071.00;10323576;28;97081;-59
2022/08/24 01:01:12;;;;;;;2.00;1.35;;;;;;;18.12;45.14;96069.19;10331663;28;96797;-60
2022/08/24 01:06:15;;;;;;;2.90;1.50;;;;;;;18.04;45.02;96063.25;10333788;28;96737;-60
2022/08/24 01:11:23;;;;;;;3.45;1.73;;;;;;;17.75;46.36;96063.34;10333877;28;96850;-60
2022/08/24 01:21:53;;;;;;;2.67;1.63;;;;;;;17.55;46.68;96070.34;10331130;28;96865;-59
2022/08/24 01:26:57;;;;;;;1.63;1.40;;;;;;;17.28;46.43;96062.25;10314646;28;96808;-59
2022/08/24 01:32:01;;;;;;;2.83;1.35;;;;;;;17.27;46.63;96063.28;10330824;28;96767;-60
2022/08/24 01:37:07;;;;;;;2.92;1.50;;;;;;;17.22;47.45;96070.97;10318863;28;96911;-59
2022/08/24 01:42:13;;;;;;;2.92;1.60;;;;;;;17.03;47.65;96071.66;10324976;28;97004;-60
2022/08/24 01:47:17;;;;;;;3.58;1.55;;;;;;;16.96;48.04;96067.13;10326460;28;96823;-59
2022/08/24 01:52:22;;;;;;;2.20;1.60;;;;;;;16.98;48.25;96064.31;10323717;28;96799;-60
2022/08/24 01:57:27;;;;;;;2.78;1.80;;;;;;;16.92;48.26;96065.91;10328485;28;96740;-60
2022/08/24 02:02:31;;;;;;;2.75;1.73;;;;;;;16.86;48.06;96069.28;10327754;28;97040;-59
2022/08/24 02:07:34;;;;;;;5.10;1.67;;;;;;;16.82;48.65;96073.31;10332187;28;96919;-60
2022/08/24 02:12:41;;;;;;;3.40;1.80;;;;;;;16.63;50.30;96075.56;10324073;28;96997;-59
2022/08/24 02:17:44;;;;;;;4.55;1.77;;;;;;;16.47;49.29;96072.38;10322063;28;96862;-59
2022/08/24 02:22:47;;;;;;;2.95;1.90;;;;;;;16.40;50.63;96077.59;10326956;28;96732;-59
2022/08/24 02:27:52;;;;;;;2.55;1.58;;;;;;;16.25;50.28;96075.81;10330600;28;96911;-59
2022/08/24 02:32:55;;;;;;;2.10;1.50;;;;;;;16.09;50.08;96075.25;10330576;28;98600;-59
2022/08/24 02:37:58;;;;;;;3.55;1.50;;;;;;;16.02;49.49;96078.63;10326053;28;97117;-59
2022/08/24 02:43:03;;;;;;;2.78;1.40;;;;;;;16.08;49.57;96084.94;10329665;28;98489;-60
2022/08/24 02:48:06;;;;;;;2.85;1.25;;;;;;;15.97;49.49;96082.81;10323963;28;96805;-59
2022/08/24 02:53:09;;;;;;;4.82;1.50;;;;;;;15.88;49.26;96084.75;10315654;28;96853;-60
2022/08/24 02:58:14;;;;;;;3.45;1.60;;;;;;;15.82;49.62;96081.00;10319034;28;96992;-61
2022/08/24 03:03:17;;;;;;;2.60;1.60;;;;;;;15.76;50.13;96086.22;10328723;28;96855;-59
2022/08/24 03:08:20;;;;;;;2.60;1.60;;;;;;;15.62;50.78;96079.97;10330184;28;96793;-59
2022/08/24 03:13:25;;;;;;;4.38;2.00;;;;;;;15.60;51.67;96081.94;10321809;28;97187;-59
2022/08/24 03:18:28;;;;;;;2.47;1.55;;;;;;;15.47;51.96;96082.56;10320858;28;96707;-59
2022/08/24 03:23:31;;;;;;;2.88;1.60;;;;;;;15.31;52.42;96080.94;10328584;28;96866;-60
2022/08/24 03:28:38;;;;;;;3.55;1.90;;;;;;;15.31;51.66;96079.13;10330558;28;98452;-60
2022/08/24 03:33:41;;;;;;;2.10;1.58;;;;;;;15.34;52.37;96083.22;10318496;28;97024;-59
2022/08/24 03:38:44;;;;;;;3.65;1.83;;;;;;;15.31;52.10;96073.03;10334918;28;96931;-59
2022/08/24 03:43:48;;;;;;;3.35;1.60;;;;;;;15.21;53.15;96073.28;10333972;28;96778;-60
2022/08/24 03:48:51;;;;;;;2.75;1.73;;;;;;;15.16;53.15;96069.59;10326954;28;96799;-60
2022/08/24 03:53:57;;;;;;;5.00;1.65;;;;;;;15.13;53.70;96066.31;10317757;28;96935;-60
2022/08/24 03:59:01;;;;;;;3.60;1.60;;;;;;;15.07;53.43;96060.97;10331777;28;96831;-59
2022/08/24 04:04:05;;;;;;;4.57;2.17;;;;;;;14.98;54.18;96062.03;10316743;28;96802;-59
2022/08/24 04:09:08;;;;;;;2.55;1.80;;;;;;;14.77;54.40;96070.63;10337998;28;97264;-59
2022/08/24 04:14:13;;;;;;;2.38;1.60;;;;;;;14.75;54.49;96071.59;10330274;28;97130;-59
2022/08/24 04:19:29;;;;;;;3.20;1.80;;;;;;;14.77;54.51;96060.09;10325111;28;97066;-59
2022/08/24 04:24:32;;;;;;;2.72;2.10;;;;;;;14.63;55.46;96064.34;10313787;28;96835;-60
2022/08/24 04:29:36;;;;;;;3.25;2.40;;;;;;;14.61;55.63;96066.31;10322467;28;96841;-59
2022/08/24 04:34:38;;;;;;;3.20;2.30;;;;;;;14.52;56.39;96068.19;10334795;28;96869;-59
2022/08/24 04:39:41;;;;;;;3.70;2.35;;;;;;;14.39;58.22;96070.59;10333117;28;98106;-59
2022/08/24 04:44:46;;;;;;;4.93;2.30;;;;;;;14.48;57.16;96082.69;10333353;28;98230;-60
2022/08/24 04:49:49;;;;;;;2.10;1.90;;;;;;;14.42;57.10;96083.38;10321637;28;96756;-59
2022/08/24 04:54:51;;;;;;;3.35;2.13;;;;;;;14.45;57.82;96085.66;10332570;28;96783;-60
2022/08/24 04:59:57;;;;;;;2.90;1.92;;;;;;;14.46;57.42;96085.47;10318042;28;96861;-59
2022/08/24 05:05:00;;;;;;;3.35;2.13;;;;;;;14.47;57.23;96087.13;10334589;28;98101;-59
2022/08/24 05:10:05;;;;;;;2.78;2.28;;;;;;;14.51;57.91;96084.97;10320702;28;96747;-59
2022/08/24 05:15:12;;;;;;;5.43;2.20;;;;;;;14.50;57.79;96092.00;10331348;28;97294;-60
2022/08/24 05:20:15;;;;;;;5.63;2.28;;;;;;;14.69;57.49;96095.97;10328378;28;97664;-59
2022/08/24 05:25:18;;;;;;;2.55;2.05;;;;;;;14.83;56.59;96091.75;10311054;28;97986;-60
2022/08/24 05:30:22;;;;;;;4.13;2.40;;;;;;;14.82;56.71;96095.38;10327450;28;96932;-59
2022/08/24 05:35:25;;;;;;;2.57;2.10;;;;;;;14.98;56.75;96090.97;10330112;28;96878;-60
2022/08/24 05:40:28;;;;;;;2.75;2.35;;;;;;;15.08;56.44;96102.06;10328891;28;96760;-60
2022/08/24 05:45:36;;;;;;;4.45;2.55;;;;;;;15.07;57.55;96109.13;10332212;28;97700;-59
2022/08/24 05:50:39;;;;;;;5.40;2.23;;;;;;;15.18;57.80;96114.94;10327306;28;96857;-59
2022/08/24 05:55:42;;;;;;;4.22;2.78;;;;;;;15.40;56.94;96111.44;10330811;28;97928;-59
2022/08/24 06:00:48;;;;;;;2.38;1.90;;;;;;;15.58;57.06;96110.25;10330705;28;96832;-63
2022/08/24 06:05:51;;;;;;;3.13;2.20;;;;;;;15.75;55.58;96111.72;10328616;28;98571;-61
2022/08/24 06:10:54;;;;;;;3.78;1.90;;;;;;;15.92;54.47;96117.59;10329939;28;97260;-59
2022/08/24 06:16:11;;;;;;;3.60;1.98;;;;;;;16.01;54.67;96123.59;10327807;28;97976;-60
2022/08/24 06:21:26;;;;;;;5.15;2.05;;;;;;;16.13;54.15;96122.09;10324303;28;96775;-59
2022/08/24 06:31:54;;;;;;;3.90;2.30;;;;;;;16.50;53.95;96127.38;10317898;28;96820;-60
2022/08/24 06:36:57;;;;;;;7.05;2.55;;;;;;;16.67;53.53;96122.66;10331064;28;96819;-59
2022/08/24 06:42:00;;;;;;;4.18;2.20;;;;;;;16.84;53.64;96124.06;10331600;28;96794;-59
2022/08/24 06:47:05;;;;;;;5.13;2.45;;;;;;;17.08;53.37;96128.13;10324437;28;96821;-59
2022/08/24 06:52:09;;;;;;;2.60;2.33;;;;;;;17.27;53.97;96131.94;10331257;28;96716;-59
2022/08/24 06:57:12;;;;;;;5.10;2.35;;;;;;;17.42;52.62;96131.81;10330721;28;96726;-59
2022/08/24 07:02:18;;;;;;;3.83;2.35;;;;;;;17.68;52.82;96135.63;10338611;28;96837;-59
2022/08/24 07:07:21;;;;;;;4.25;2.33;;;;;;;17.83;53.07;96140.78;10344520;28;96898;-59
2022/08/24 07:12:24;;;;;;;3.63;2.30;;;;;;;18.05;53.44;96142.34;10344336;28;97308;-59
2022/08/24 07:17:28;;;;;;;8.13;2.50;;;;;;;18.29;53.38;96141.03;10344299;28;96782;-59
2022/08/24 07:22:31;;;;;;;3.90;2.45;;;;;;;18.58;53.05;96139.06;10344054;28;97243;-59
2022/08/24 07:27:34;;;;;;;2.53;2.13;;;;;;;18.75;52.57;96150.06;10343825;28;96853;-60
2022/08/24 07:32:38;;;;;;;4.43;2.58;;;;;;;18.93;51.97;96152.16;10344111;28;97194;-60
2022/08/24 07:37:41;;;;;;;3.03;2.20;;;;;;;19.07;52.40;96158.28;10344651;28;96759;-59
2022/08/24 07:42:47;;;;;;;5.45;2.35;;;;;;;19.24;52.16;96159.53;10343741;28;96952;-60
2022/08/24 07:47:52;;;;;;;5.15;2.65;;;;;;;19.44;51.96;96148.09;10343279;28;96914;-59
2022/08/24 07:52:57;;;;;;;7.25;2.78;;;;;;;19.67;50.72;96152.13;10342191;28;97172;-59
2022/08/24 07:58:00;;;;;;;3.58;2.22;;;;;;;19.92;51.37;96153.13;10343002;28;97964;-60
2022/08/24 08:03:05;;;;;;;3.53;2.33;;;;;;;20.14;50.88;96139.59;10343161;28;97015;-59
2022/08/24 08:08:08;;;;;;;3.08;2.22;;;;;;;20.26;49.89;96151.16;10343091;28;97300;-59
2022/08/24 08:13:11;;;;;;;4.65;2.38;;;;;;;20.40;49.47;96156.41;10338681;28;96756;-59
2022/08/24 08:18:15;;;;;;;3.65;2.30;;;;;;;20.49;48.90;96155.94;10335992;28;96783;-59
2022/08/24 08:28:41;;;;;;;5.10;2.47;;;;;;;20.65;49.46;96154.66;10325023;28;97860;-60
2022/08/24 08:33:45;;;;;;;3.90;2.22;;;;;;;20.86;49.06;96156.19;10335503;28;96719;-59
2022/08/24 08:38:49;;;;;;;3.47;2.30;;;;;;;21.05;48.31;96159.72;10335954;28;97703;-59
2022/08/24 08:44:00;;;;;;;4.05;2.13;;;;;;;21.23;48.33;96155.50;10334468;28;97583;-60
2022/08/24 08:49:34;;;;;;;2.97;2.10;;;;;;;21.43;47.66;96140.22;10334515;28;98674;-60
2022/08/24 08:54:55;;;;;;;4.35;2.42;;;;;;;21.61;47.20;96152.69;10334762;28;96726;-60
2022/08/24 09:00:16;;;;;;;3.63;2.35;;;;;;;21.66;47.24;96158.22;10334943;28;97038;-60
2022/08/24 09:05:47;;;;;;;4.03;2.40;;;;;;;21.85;47.05;96150.25;10334495;28;97624;-59
2022/08/24 09:10:56;;;;;;;4.63;2.13;;;;;;;22.12;46.61;96157.94;10334495;28;97039;-60
2022/08/24 09:16:21;;;;;;;3.95;2.25;;;;;;;22.30;45.91;96143.78;10324035;28;96902;-60
2022/08/24 09:21:38;;;;;;;;;;;;;;;22.49;45.87;96158.75;10326336;28;97868;-59
2022/08/24 09:26:55;;;;;;;3.83;2.45;;;;;;;22.53;45.45;96153.78;10333604;28;97270;-60
2022/08/24 09:32:22;;;;;;;6.78;2.15;;;;;;;22.58;45.64;96152.06;10322093;28;96952;-60
2022/08/24 09:37:34;;;;;;;4.07;2.10;;;;;;;22.63;45.09;96143.41;10332758;28;96881;-60
2022/08/24 09:43:05;;;;;;;4.47;2.22;;;;;;;22.75;45.31;96140.75;10333745;28;98819;-60
2022/08/24 09:48:52;;;;;;;2.78;2.28;;;;;;;23.03;44.91;96136.66;10333506;28;96905;-59
2022/08/24 09:54:27;;;;;;;2.47;2.10;;;;;;;23.19;45.28;96136.00;10278742;28;97440;-60
2022/08/24 09:59:56;;;;;;;3.35;2.10;;;;;;;23.32;44.94;96125.13;10165745;28;97148;-60
2022/08/24 10:05:09;;;;;;;3.35;2.30;;;;;;;23.38;44.86;96120.75;10165519;28;97081;-60
2022/08/24 10:10:27;;;;;;;4.47;2.40;;;;;;;23.50;44.52;96105.56;10166081;28;96988;-60
2022/08/24 10:15:41;;;;;;;4.43;2.40;;;;;;;23.68;44.37;96111.81;10165636;28;96977;-60
2022/08/24 10:20:59;;;;;;;4.55;2.30;;;;;;;23.85;44.26;96114.56;10160412;28;97002;-59
2022/08/24 10:26:08;;;;;;;4.90;2.50;;;;;;;23.88;44.21;96116.75;10163174;28;97129;-61
2022/08/24 10:31:18;;;;;;;3.95;2.63;;;;;;;23.79;43.97;96118.97;10202147;28;96864;-60
2022/08/24 10:36:56;;;;;;;4.47;2.60;;;;;;;23.74;43.72;96110.84;10289830;28;96975;-59
2022/08/24 10:48:12;;;;;;;4.03;2.90;;;;;;;24.28;43.36;96103.44;10330682;28;97327;-60
2022/08/24 10:53:22;;;;;;;5.40;2.90;;;;;;;24.48;42.56;96100.34;10331270;28;96782;-60
2022/08/24 10:58:49;;;;;;;4.07;2.53;;;;;;;24.58;42.02;96093.59;10331372;28;98733;-61
2022/08/24 11:03:58;;;;;;;2.90;2.25;;;;;;;24.68;42.04;96083.06;10331189;28;96774;-60
2022/08/24 11:09:07;;;;;;;5.40;2.38;;;;;;;24.68;41.66;96083.06;10331707;28;96765;-60
2022/08/24 11:14:24;;;;;;;5.35;2.63;;;;;;;24.80;41.71;96083.81;10330084;28;96825;-59
2022/08/24 11:19:34;;;;;;;3.08;2.60;;;;;;;24.99;40.86;96081.75;10321138;28;96797;-63
2022/08/24 11:24:43;;;;;;;3.17;2.22;;;;;;;25.27;40.10;96076.53;10322146;28;97748;-61
2022/08/24 11:30:05;;;;;;;4.38;2.67;;;;;;;25.45;39.64;96076.28;10330405;28;96826;-60
2022/08/24 11:35:19;;;;;;;2.38;2.10;;;;;;;25.74;39.14;96081.53;10329874;28;96770;-60
2022/08/24 11:40:28;;;;;;;4.82;2.10;;;;;;;25.92;38.77;96081.19;10318534;28;97095;-60
2022/08/24 11:45:36;;;;;;;3.13;1.80;;;;;;;26.13;38.46;96070.72;10329875;28;96902;-60
2022/08/24 11:50:48;;;;;;;2.50;1.95;;;;;;;26.18;37.86;96076.16;10335908;28;97804;-60
2022/08/24 11:55:58;;;;;;;5.22;2.10;;;;;;;26.19;37.62;96069.75;10336919;28;96785;-60
2022/08/24 12:01:08;;;;;;;4.80;1.75;;;;;;;26.49;37.66;96077.31;10337648;28;96921;-60
2022/08/24 12:06:23;;;;;;;3.00;1.80;;;;;;;26.59;37.48;96071.25;10336814;28;97243;-60
2022/08/24 12:11:40;;;;;;;2.78;1.90;;;;;;;26.80;36.86;96079.47;10336349;28;97521;-59
2022/08/24 12:16:51;;;;;;;3.05;2.13;;;;;;;26.86;36.11;96079.25;10335151;28;96840;-60
2022/08/24 12:21:59;;;;;;;2.85;2.00;;;;;;;26.70;36.46;96066.78;10336176;28;96900;-60
2022/08/24 12:27:06;;;;;;;2.75;1.90;;;;;;;27.04;35.96;96080.78;10335925;28;96779;-60
2022/08/24 12:32:14;;;;;;;2.95;2.00;;;;;;;27.14;35.72;96079.22;10335625;28;96740;-60
2022/08/24 12:37:24;;;;;;;2.60;1.60;;;;;;;27.04;36.02;96070.06;10335274;28;96818;-60
2022/08/24 12:42:33;;;;;;;3.28;1.92;;;;;;;27.15;35.37;96070.13;10335820;28;98754;-60
2022/08/24 12:47:45;;;;;;;2.40;1.80;;;;;;;27.19;35.19;96065.84;10334983;28;96815;-60
2022/08/24 12:53:18;;;;;;;2.85;1.50;;;;;;;27.25;34.76;96064.84;10336119;28;96863;-60
2022/08/24 12:58:45;;;;;;;2.53;1.52;;;;;;;27.53;34.36;96065.56;10334537;28;97466;-60
2022/08/24 13:04:05;;;;;;;;;;;;;;;27.78;34.53;96059.53;10335435;28;98066;-60
2022/08/24 13:09:16;;;;;;;2.08;1.60;;;;;;;28.06;33.74;96063.66;10333298;28;96835;-60
2022/08/24 13:14:22;;;;;;;3.75;1.80;;;;;;;28.10;33.09;96047.81;10333426;28;97967;-60
2022/08/24 13:19:35;;;;;;;2.80;1.60;;;;;;;28.07;32.92;96049.16;10322192;28;96908;-60
2022/08/24 13:24:43;;;;;;;3.30;1.80;;;;;;;28.24;32.66;96055.13;10334263;28;96868;-60
2022/08/24 13:29:54;;;;;;;1.75;1.40;;;;;;;28.35;32.73;96049.81;10334254;28;97118;-60
2022/08/24 13:34:58;;;;;;;2.80;1.50;;;;;;;28.37;32.72;96048.44;10333858;28;96940;-60
2022/08/24 13:40:13;;;;;;;3.17;1.65;;;;;;;28.25;32.79;96050.53;10333177;28;96901;-60
2022/08/24 13:45:32;;;;;;;2.50;1.88;;;;;;;28.10;33.26;96045.97;10333842;28;97667;-62
2022/08/24 13:50:46;;;;;;;2.75;1.50;;;;;;;28.18;32.34;96044.63;10324230;28;97752;-60
2022/08/24 13:55:52;;;;;;;1.83;1.52;;;;;;;28.36;32.13;96043.34;10332970;28;96831;-60
2022/08/24 14:01:02;;;;;;;3.92;1.63;;;;;;;28.60;31.21;96038.28;10332226;28;96752;-60
2022/08/24 14:06:21;;;;;;;3.30;1.75;;;;;;;28.66;31.19;96033.72;10333030;28;96886;-60
2022/08/24 14:11:44;;;;;;;2.38;1.50;;;;;;;28.39;31.98;96030.22;10322359;28;96723;-60
2022/08/24 14:22:33;;;;;;;1.80;1.50;;;;;;;28.74;31.53;96025.13;10332203;28;97014;-60
2022/08/24 14:27:41;;;;;;;4.32;1.60;;;;;;;28.83;31.26;96017.31;10326058;28;96844;-61
2022/08/24 14:33:02;;;;;;;4.35;1.40;;;;;;;29.57;30.31;96015.09;10331653;28;98158;-60
2022/08/24 14:38:22;;;;;;;2.50;1.77;;;;;;;30.00;29.73;96018.94;10331762;28;96843;-60
2022/08/24 14:43:34;;;;;;;3.17;1.70;;;;;;;30.11;29.56;96009.75;10332278;28;96878;-60
2022/08/24 14:48:47;;;;;;;2.78;1.90;;;;;;;30.40;28.86;96014.44;10330153;28;97053;-61
2022/08/24 14:54:00;;;;;;;3.05;1.77;;;;;;;30.74;28.36;96004.75;10330728;28;96807;-61
2022/08/24 14:59:11;;;;;;;2.42;1.63;;;;;;;31.85;27.54;95998.53;10323940;28;98383;-61
2022/08/24 15:04:42;;;;;;;1.77;1.20;;;;;;;32.78;26.33;96000.75;10330838;28;97093;-62
2022/08/24 15:09:45;;;;;;;3.75;1.30;;;;;;;33.12;26.57;95999.66;10317255;28;96848;-61
2022/08/24 15:14:54;;;;;;;1.98;1.20;;;;;;;33.58;25.88;96006.91;10329999;28;97011;-61
2022/08/24 15:20:03;;;;;;;2.65;1.40;;;;;;;34.00;25.27;96002.28;10330875;28;96759;-59
2022/08/24 15:25:11;;;;;;;2.95;1.50;;;;;;;33.56;25.28;95992.06;10332420;28;96913;-59
2022/08/24 15:30:26;;;;;;;1.50;1.30;;;;;;;33.03;26.01;96001.41;10334774;28;98469;-59
2022/08/24 15:35:31;;;;;;;3.85;1.50;;;;;;;32.81;26.01;95988.53;10330263;28;96886;-59
2022/08/24 15:40:34;;;;;;;3.97;1.52;;;;;;;33.34;25.48;95990.03;10341165;28;97813;-60
2022/08/24 15:45:48;;;;;;;2.60;1.30;;;;;;;33.81;25.10;95985.34;10330808;28;97887;-59
2022/08/24 15:50:54;;;;;;;2.65;1.50;;;;;;;34.29;24.66;95981.38;10335734;28;96827;-58
2022/08/24 15:55:57;;;;;;;2.20;1.58;;;;;;;34.69;24.37;95984.25;10337048;28;96928;-59
2022/08/24 16:06:44;;;;;;;1.88;1.42;;;;;;;34.93;23.51;95992.84;10334216;28;96851;-59
2022/08/24 16:11:58;;;;;;;1.85;1.65;;;;;;;35.27;23.71;95999.63;10324417;28;96943;-59
2022/08/24 16:17:30;;;;;;;2.75;1.50;;;;;;;35.00;23.98;95991.63;10330364;28;97273;-59
2022/08/24 16:22:36;;;;;;;3.63;1.67;;;;;;;34.44;24.56;95988.34;10324444;28;98961;-59
2022/08/24 16:27:55;;;;;;;2.65;1.52;;;;;;;34.41;24.35;95981.63;10333460;28;96836;-60
2022/08/24 16:33:00;;;;;;;3.85;1.67;;;;;;;34.49;24.93;95991.75;10327322;28;96910;-59
2022/08/24 16:38:07;;;;;;;2.47;1.50;;;;;;;34.45;24.77;95985.31;10330379;28;96765;-59
2022/08/24 16:43:10;;;;;;;2.42;1.90;;;;;;;34.61;24.64;95983.06;10319439;28;98573;-59
2022/08/24 16:48:15;;;;;;;5.20;1.63;;;;;;;34.50;24.54;95974.34;10324093;28;96823;-60
2022/08/24 16:53:17;;;;;;;2.45;1.70;;;;;;;34.32;24.89;95983.47;10328856;28;97885;-59
2022/08/24 16:58:22;;;;;;;2.40;1.52;;;;;;;34.06;25.04;95985.94;10331618;28;96859;-59
2022/08/24 17:03:27;;;;;;;3.50;1.58;;;;;;;33.58;25.69;95979.81;10329828;28;97140;-60
2022/08/24 17:08:30;;;;;;;4.60;2.08;;;;;;;33.39;26.16;95984.53;10332418;28;96862;-58
2022/08/24 17:13:33;;;;;;;2.45;1.80;;;;;;;33.49;25.92;95986.25;10331210;28;97092;-59
2022/08/24 17:18:54;;;;;;;2.20;1.58;;;;;;;33.18;26.09;95986.84;10331383;28;98517;-59
2022/08/24 17:23:56;;;;;;;3.35;1.70;;;;;;;32.89;26.62;95990.53;10332488;28;96859;-59
2022/08/24 17:29:03;;;;;;;2.38;1.60;;;;;;;32.33;26.82;95979.50;10331207;28;97190;-59
2022/08/24 17:34:07;;;;;;;2.45;2.00;;;;;;;31.47;27.57;95990.34;10330296;28;97261;-59
2022/08/24 17:39:12;;;;;;;3.40;1.88;;;;;;;30.62;28.55;95991.66;10331788;28;96876;-59
2022/08/24 17:44:22;;;;;;;3.10;1.67;;;;;;;29.84;30.00;95985.13;10332283;28;96862;-59
2022/08/24 17:49:27;;;;;;;2.92;1.75;;;;;;;29.14;31.13;95983.16;10331301;28;96840;-58
2022/08/24 17:54:30;;;;;;;3.42;1.63;;;;;;;28.52;32.25;95983.19;10331555;28;96819;-59
2022/08/24 17:59:35;;;;;;;2.67;1.63;;;;;;;28.01;33.22;95997.34;10331337;28;96915;-59
2022/08/24 18:04:40;;;;;;;2.38;1.75;;;;;;;27.64;33.91;96005.53;10330591;28;97424;-58
2022/08/24 18:09:46;;;;;;;2.63;1.85;;;;;;;27.21;34.88;96005.53;10323649;28;97087;-59
2022/08/24 18:14:50;;;;;;;3.88;1.83;;;;;;;26.81;35.66;96000.69;10326950;28;96828;-60
2022/08/24 18:19:54;;;;;;;3.42;1.98;;;;;;;26.31;36.52;96005.34;10323896;28;96865;-59
2022/08/24 18:24:57;;;;;;;3.83;1.98;;;;;;;25.94;37.10;96004.13;10330950;28;97752;-59
2022/08/24 18:30:05;;;;;;;6.25;2.10;;;;;;;25.68;37.61;96002.25;10330963;28;96795;-58
2022/08/24 18:35:09;;;;;;;5.38;2.38;;;;;;;25.40;38.19;96001.31;10327947;28;96766;-59
2022/08/24 18:40:13;;;;;;;6.57;2.70;;;;;;;25.10;38.69;95999.06;10326988;28;96785;-59
2022/08/24 18:45:26;;;;;;;3.72;2.22;;;;;;;24.93;39.49;96004.41;10319686;28;96846;-58
2022/08/24 18:50:33;;;;;;;3.67;1.88;;;;;;;24.77;39.59;96006.81;10327124;28;98188;-59
2022/08/24 18:55:44;;;;;;;3.85;2.13;;;;;;;24.54;39.75;96014.97;10324436;28;96901;-59
2022/08/24 19:00:49;;;;;;;4.20;2.10;;;;;;;24.31;40.04;96020.22;10326777;28;96855;-59
2022/08/24 19:05:55;;;;;;;5.15;1.88;;;;;;;24.23;39.94;96015.28;10323076;28;97018;-60
2022/08/24 19:10:58;;;;;;;2.92;1.90;;;;;;;24.15;39.50;96021.00;10324722;28;96997;-60
2022/08/24 19:16:01;;;;;;;2.03;1.83;;;;;;;24.16;39.41;96016.44;10327677;28;98974;-59
2022/08/24 19:21:05;;;;;;;3.65;2.13;;;;;;;23.92;39.87;96013.88;10326725;28;97823;-59
2022/08/24 19:26:08;;;;;;;4.40;2.05;;;;;;;23.81;40.10;96025.38;10329875;28;97133;-59
2022/08/24 19:31:13;;;;;;;4.68;2.10;;;;;;;23.66;41.27;96009.88;10336197;28;96756;-59
2022/08/24 19:36:18;;;;;;;2.28;1.90;;;;;;;23.39;41.63;96023.72;10324830;28;99870;-59
2022/08/24 19:41:21;;;;;;;7.65;2.88;;;;;;;23.25;42.56;96017.00;10318458;28;96847;-60
2022/08/24 19:46:37;;;;;;;4.13;2.65;;;;;;;23.00;43.23;96032.19;10322532;28;96833;-59
2022/08/24 19:51:41;;;;;;;4.53;2.17;;;;;;;22.82;43.47;96029.59;10321364;28;97083;-61
2022/08/24 19:56:44;;;;;;;;;;;;;;;22.60;43.03;96037.34;10326087;28;96932;-59
2022/08/24 20:01:47;;;;;;;3.33;2.45;;;;;;;22.41;44.49;96034.72;10323926;28;96839;-59
2022/08/24 20:06:52;;;;;;;4.00;2.22;;;;;;;22.32;45.36;96040.59;10321632;28;96890;-59
2022/08/24 20:11:54;;;;;;;4.10;2.40;;;;;;;22.14;45.40;96038.78;10328809;28;97611;-59
2022/08/24 20:16:58;;;;;;;7.25;2.97;;;;;;;21.97;45.91;96035.94;10329293;28;98062;-58
2022/08/24 20:22:02;;;;;;;2.63;2.20;;;;;;;21.75;46.42;96035.63;10333377;28;97881;-59
2022/08/24 20:27:20;;;;;;;2.90;2.47;;;;;;;21.74;46.51;96034.78;10328734;28;97521;-59
2022/08/24 20:32:23;;;;;;;2.75;2.40;;;;;;;21.36;47.33;96033.16;10326134;28;96879;-59
2022/08/24 20:37:30;;;;;;;3.20;2.60;;;;;;;21.18;47.95;96036.59;10335815;28;96970;-61
2022/08/24 20:42:32;;;;;;;4.78;2.80;;;;;;;21.03;48.57;96044.94;10334628;28;97079;-62
2022/08/24 20:47:47;;;;;;;2.83;2.35;;;;;;;21.00;48.51;96040.06;10332181;28;98227;-62
2022/08/24 20:52:52;;;;;;;3.60;2.40;;;;;;;20.96;47.75;96040.69;10317481;28;97058;-61
2022/08/24 20:57:59;;;;;;;8.98;3.22;;;;;;;20.95;47.82;96042.56;10323905;28;98540;-61
2022/08/24 21:03:02;;;;;;;8.80;7.72;;;;;;;20.91;47.90;96038.69;10327314;28;97058;-63
2022/08/24 21:08:07;;;;;;;5.38;4.45;;;;;;;20.82;47.80;96047.97;10329325;28;97732;-62
2022/08/24 21:13:10;;;;;;;4.00;2.92;;;;;;;20.55;48.92;96048.16;10327896;28;98000;-61
2022/08/24 21:18:13;;;;;;;5.30;3.22;;;;;;;20.27;50.14;96057.31;10331556;28;98292;-61
2022/08/24 21:23:17;;;;;;;4.10;2.70;;;;;;;20.00;50.99;96044.16;10323942;28;96772;-62
2022/08/24 21:28:21;;;;;;;4.20;3.00;;;;;;;19.89;50.84;96052.81;10327608;28;97364;-61
2022/08/24 21:38:44;;;;;;;4.25;2.78;;;;;;;19.62;50.72;96055.50;10279944;28;99438;-62
2022/08/24 21:43:47;;;;;;;4.28;3.20;;;;;;;19.65;51.13;96062.25;10294416;28;97029;-63
2022/08/24 21:48:50;;;;;;;4.78;2.50;;;;;;;19.59;50.52;96061.25;10282521;28;97767;-61
2022/08/24 21:53:54;;;;;;;4.30;2.03;;;;;;;19.61;50.06;96064.50;10288192;28;98924;-61
2022/08/24 21:59:01;;;;;;;3.47;2.45;;;;;;;19.49;50.90;96060.88;10288805;28;98555;-61
2022/08/24 22:04:04;;;;;;;3.03;2.20;;;;;;;19.40;49.91;96064.75;10283942;28;98248;-61
2022/08/24 22:09:09;;;;;;;5.72;2.55;;;;;;;19.21;51.60;96061.13;10284152;28;97767;-61
2022/08/24 22:14:14;;;;;;;4.70;2.40;;;;;;;19.18;51.86;96070.31;10300635;28;97022;-61
2022/08/24 22:19:16;;;;;;;3.95;2.28;;;;;;;19.09;51.58;96055.66;10325913;28;97982;-61
2022/08/24 22:24:20;;;;;;;4.70;2.30;;;;;;;18.97;51.82;96067.88;10319441;28;97919;-61
2022/08/24 22:29:23;;;;;;;3.63;2.15;;;;;;;18.84;52.23;96069.47;10334598;28;97050;-62
2022/08/24 22:34:26;;;;;;;3.38;2.10;;;;;;;18.81;51.82;96072.53;10331313;28;96774;-61
2022/08/24 22:39:31;;;;;;;3.72;2.30;;;;;;;18.84;52.74;96066.81;10328383;28;97659;-61
2022/08/24 22:44:35;;;;;;;4.28;2.30;;;;;;;18.81;52.09;96066.41;10328072;28;96752;-61
2022/08/24 22:49:40;;;;;;;4.80;2.73;;;;;;;18.64;52.46;96073.97;10321996;28;98257;-61
2022/08/24 22:54:44;;;;;;;4.57;2.65;;;;;;;18.48;53.82;96075.97;10326319;28;96826;-61
2022/08/24 22:59:47;;;;;;;2.97;2.30;;;;;;;18.40;52.75;96073.50;10324457;28;96881;-61
2022/08/24 23:04:51;;;;;;;2.85;2.33;;;;;;;18.43;53.07;96081.03;10333373;28;97803;-61
2022/08/24 23:09:55;;;;;;;3.03;2.35;;;;;;;18.38;52.72;96085.31;10321947;28;97003;-61
2022/08/24 23:14:58;;;;;;;3.33;2.28;;;;;;;18.37;53.39;96087.13;10326524;28;99161;-61
2022/08/24 23:20:04;;;;;;;4.78;2.50;;;;;;;18.34;52.77;96084.88;10326560;28;97623;-62
2022/08/24 23:25:11;;;;;;;3.15;2.60;;;;;;;18.20;53.39;96078.75;10316055;28;96883;-61
2022/08/24 23:30:14;;;;;;;3.92;2.20;;;;;;;18.02;54.31;96084.59;10326143;28;96927;-61
2022/08/24 23:35:17;;;;;;;3.80;2.28;;;;;;;18.02;54.22;96087.22;10328245;28;98597;-65
2022/08/24 23:40:21;;;;;;;3.28;2.40;;;;;;;18.00;53.62;96083.19;10324621;28;98798;-60
2022/08/24 23:45:24;;;;;;;3.33;2.20;;;;;;;18.02;53.89;96081.16;10325737;28;97522;-61
2022/08/24 23:50:30;;;;;;;2.65;2.40;;;;;;;18.05;54.39;96086.84;10339961;28;96948;-62
2022/08/24 23:55:34;;;;;;;5.13;2.20;;;;;;;17.88;54.99;96073.16;10337652;28;96873;-63
